sensor_id;sensor_type;location;lat;lon;timestamp;P1;durP1;ratioP1;P2;durP2;ratioP2
44696;SDS011;57264;47.480;19.354;2022-10-22T00:00:08;6.93;;;4.77;;
44696;SDS011;57264;47.480;19.354;2022-10-22T00:02:35;11.05;;;5.38;;
44696;SDS011;57264;47.480;19.354;2022-10-22T00:05:00;8.73;;;4.63;;
44696;SDS011;57264;47.480;19.354;2022-10-22T00:07:26;7.80;;;5.10;;
44696;SDS011;57264;47.480;19.354;2022-10-22T00:09:51;7.30;;;5.00;;
44696;SDS011;57264;47.480;19.354;2022-10-22T00:12:17;8.13;;;5.00;;
44696;SDS011;57264;47.480;19.354;2022-10-22T00:14:43;9.52;;;4.75;;
44696;SDS011;57264;47.480;19.354;2022-10-22T00:17:09;10.88;;;5.40;;
44696;SDS011;57264;47.480;19.354;2022-10-22T00:19:35;7.53;;;5.27;;
44696;SDS011;57264;47.480;19.354;2022-10-22T00:22:00;9.27;;;4.40;;
44696;SDS011;57264;47.480;19.354;2022-10-22T00:24:29;7.72;;;4.30;;
44696;SDS011;57264;47.480;19.354;2022-10-22T00:26:55;7.73;;;4.57;;
44696;SDS011;57264;47.480;19.354;2022-10-22T00:29:20;8.63;;;5.07;;
44696;SDS011;57264;47.480;19.354;2022-10-22T00:31:46;7.80;;;5.97;;
44696;SDS011;57264;47.480;19.354;2022-10-22T00:34:20;6.90;;;4.85;;
44696;SDS011;57264;47.480;19.354;2022-10-22T00:36:47;11.20;;;5.22;;
44696;SDS011;57264;47.480;19.354;2022-10-22T00:39:14;6.82;;;5.03;;
44696;SDS011;57264;47.480;19.354;2022-10-22T00:41:42;7.90;;;5.38;;
44696;SDS011;57264;47.480;19.354;2022-10-22T00:47:11;7.83;;;4.90;;
44696;SDS011;57264;47.480;19.354;2022-10-22T00:49:37;6.60;;;4.25;;
44696;SDS011;57264;47.480;19.354;2022-10-22T00:52:02;6.13;;;4.70;;
44696;SDS011;57264;47.480;19.354;2022-10-22T00:54:28;9.23;;;5.03;;
44696;SDS011;57264;47.480;19.354;2022-10-22T00:56:54;12.93;;;4.87;;
44696;SDS011;57264;47.480;19.354;2022-10-22T00:59:19;12.60;;;4.83;;
44696;SDS011;57264;47.480;19.354;2022-10-22T01:01:45;10.80;;;4.33;;
44696;SDS011;57264;47.480;19.354;2022-10-22T01:04:10;8.13;;;4.23;;
44696;SDS011;57264;47.480;19.354;2022-10-22T01:06:36;9.03;;;5.60;;
44696;SDS011;57264;47.480;19.354;2022-10-22T01:30:14;8.73;;;5.30;;
44696;SDS011;57264;47.480;19.354;2022-10-22T01:32:42;12.18;;;5.18;;
44696;SDS011;57264;47.480;19.354;2022-10-22T01:35:18;10.88;;;5.40;;
44696;SDS011;57264;47.480;19.354;2022-10-22T01:40:17;15.18;;;6.20;;
44696;SDS011;57264;47.480;19.354;2022-10-22T01:42:56;12.23;;;5.95;;
44696;SDS011;57264;47.480;19.354;2022-10-22T01:45:24;8.57;;;4.60;;
44696;SDS011;57264;47.480;19.354;2022-10-22T01:53:17;8.70;;;5.40;;
44696;SDS011;57264;47.480;19.354;2022-10-22T01:58:38;11.23;;;4.97;;
44696;SDS011;57264;47.480;19.354;2022-10-22T02:06:37;8.75;;;5.03;;
44696;SDS011;57264;47.480;19.354;2022-10-22T02:09:06;9.13;;;5.43;;
44696;SDS011;57264;47.480;19.354;2022-10-22T02:11:34;13.63;;;6.05;;
44696;SDS011;57264;47.480;19.354;2022-10-22T02:14:00;9.73;;;5.77;;
44696;SDS011;57264;47.480;19.354;2022-10-22T02:16:36;9.02;;;4.97;;
44696;SDS011;57264;47.480;19.354;2022-10-22T02:21:51;11.88;;;5.32;;
44696;SDS011;57264;47.480;19.354;2022-10-22T02:24:17;11.48;;;6.13;;
44696;SDS011;57264;47.480;19.354;2022-10-22T02:26:49;9.43;;;5.97;;
44696;SDS011;57264;47.480;19.354;2022-10-22T02:29:38;8.45;;;5.72;;
44696;SDS011;57264;47.480;19.354;2022-10-22T02:32:07;11.52;;;6.05;;
44696;SDS011;57264;47.480;19.354;2022-10-22T02:34:35;10.30;;;5.60;;
44696;SDS011;57264;47.480;19.354;2022-10-22T02:37:01;11.13;;;6.27;;
44696;SDS011;57264;47.480;19.354;2022-10-22T02:39:28;14.05;;;6.43;;
44696;SDS011;57264;47.480;19.354;2022-10-22T02:41:56;9.23;;;5.80;;
44696;SDS011;57264;47.480;19.354;2022-10-22T02:44:22;8.90;;;6.30;;
44696;SDS011;57264;47.480;19.354;2022-10-22T02:46:48;10.60;;;5.78;;
44696;SDS011;57264;47.480;19.354;2022-10-22T02:49:14;10.63;;;6.07;;
44696;SDS011;57264;47.480;19.354;2022-10-22T02:51:40;12.73;;;5.83;;
44696;SDS011;57264;47.480;19.354;2022-10-22T02:54:05;11.63;;;6.17;;
44696;SDS011;57264;47.480;19.354;2022-10-22T02:56:31;10.53;;;6.10;;
44696;SDS011;57264;47.480;19.354;2022-10-22T02:58:57;9.93;;;6.07;;
44696;SDS011;57264;47.480;19.354;2022-10-22T03:01:22;11.37;;;5.87;;
44696;SDS011;57264;47.480;19.354;2022-10-22T03:03:48;12.57;;;6.10;;
44696;SDS011;57264;47.480;19.354;2022-10-22T03:06:13;8.30;;;5.67;;
44696;SDS011;57264;47.480;19.354;2022-10-22T03:08:39;9.83;;;5.87;;
44696;SDS011;57264;47.480;19.354;2022-10-22T03:11:05;9.48;;;5.72;;
44696;SDS011;57264;47.480;19.354;2022-10-22T03:13:30;12.33;;;5.80;;
44696;SDS011;57264;47.480;19.354;2022-10-22T03:15:56;12.33;;;7.37;;
44696;SDS011;57264;47.480;19.354;2022-10-22T03:18:21;9.47;;;5.70;;
44696;SDS011;57264;47.480;19.354;2022-10-22T03:20:47;11.27;;;6.53;;
44696;SDS011;57264;47.480;19.354;2022-10-22T03:23:13;10.17;;;6.07;;
44696;SDS011;57264;47.480;19.354;2022-10-22T03:25:42;10.15;;;6.82;;
44696;SDS011;57264;47.480;19.354;2022-10-22T03:28:10;7.57;;;5.68;;
44696;SDS011;57264;47.480;19.354;2022-10-22T03:30:39;9.88;;;5.78;;
44696;SDS011;57264;47.480;19.354;2022-10-22T03:33:05;10.53;;;6.50;;
44696;SDS011;57264;47.480;19.354;2022-10-22T03:35:30;11.17;;;5.93;;
44696;SDS011;57264;47.480;19.354;2022-10-22T03:37:58;10.57;;;6.40;;
44696;SDS011;57264;47.480;19.354;2022-10-22T03:40:25;12.55;;;7.18;;
44696;SDS011;57264;47.480;19.354;2022-10-22T03:42:51;9.77;;;5.97;;
44696;SDS011;57264;47.480;19.354;2022-10-22T03:45:16;11.77;;;7.00;;
44696;SDS011;57264;47.480;19.354;2022-10-22T03:47:42;10.77;;;6.57;;
44696;SDS011;57264;47.480;19.354;2022-10-22T03:50:07;13.47;;;6.20;;
44696;SDS011;57264;47.480;19.354;2022-10-22T03:52:34;12.52;;;6.55;;
44696;SDS011;57264;47.480;19.354;2022-10-22T03:55:04;10.10;;;6.63;;
44696;SDS011;57264;47.480;19.354;2022-10-22T03:57:31;11.95;;;7.15;;
44696;SDS011;57264;47.480;19.354;2022-10-22T03:59:56;11.43;;;6.07;;
44696;SDS011;57264;47.480;19.354;2022-10-22T04:02:22;13.57;;;6.30;;
44696;SDS011;57264;47.480;19.354;2022-10-22T04:04:47;11.13;;;6.53;;
44696;SDS011;57264;47.480;19.354;2022-10-22T04:07:13;12.60;;;6.97;;
44696;SDS011;57264;47.480;19.354;2022-10-22T04:09:38;11.07;;;6.67;;
44696;SDS011;57264;47.480;19.354;2022-10-22T04:12:04;15.13;;;6.37;;
44696;SDS011;57264;47.480;19.354;2022-10-22T04:14:30;11.65;;;7.43;;
44696;SDS011;57264;47.480;19.354;2022-10-22T04:16:56;15.30;;;7.73;;
44696;SDS011;57264;47.480;19.354;2022-10-22T04:19:21;15.23;;;9.00;;
44696;SDS011;57264;47.480;19.354;2022-10-22T04:21:47;9.20;;;6.97;;
44696;SDS011;57264;47.480;19.354;2022-10-22T04:24:12;11.70;;;7.37;;
44696;SDS011;57264;47.480;19.354;2022-10-22T04:26:37;12.77;;;7.27;;
44696;SDS011;57264;47.480;19.354;2022-10-22T04:29:04;14.80;;;7.57;;
44696;SDS011;57264;47.480;19.354;2022-10-22T04:31:31;13.52;;;8.25;;
44696;SDS011;57264;47.480;19.354;2022-10-22T04:33:57;10.60;;;7.63;;
44696;SDS011;57264;47.480;19.354;2022-10-22T04:36:24;17.60;;;7.75;;
44696;SDS011;57264;47.480;19.354;2022-10-22T04:38:51;12.55;;;8.18;;
44696;SDS011;57264;47.480;19.354;2022-10-22T04:41:21;11.68;;;7.68;;
44696;SDS011;57264;47.480;19.354;2022-10-22T04:43:48;12.05;;;7.97;;
44696;SDS011;57264;47.480;19.354;2022-10-22T04:46:14;12.87;;;7.90;;
44696;SDS011;57264;47.480;19.354;2022-10-22T04:48:42;13.23;;;7.95;;
44696;SDS011;57264;47.480;19.354;2022-10-22T04:51:10;13.65;;;7.28;;
44696;SDS011;57264;47.480;19.354;2022-10-22T04:53:37;16.27;;;7.80;;
44696;SDS011;57264;47.480;19.354;2022-10-22T04:56:11;12.18;;;7.60;;
44696;SDS011;57264;47.480;19.354;2022-10-22T04:58:52;11.40;;;7.47;;
44696;SDS011;57264;47.480;19.354;2022-10-22T05:01:30;13.30;;;8.05;;
44696;SDS011;57264;47.480;19.354;2022-10-22T05:03:56;11.38;;;7.22;;
44696;SDS011;57264;47.480;19.354;2022-10-22T05:06:23;14.63;;;8.50;;
44696;SDS011;57264;47.480;19.354;2022-10-22T05:08:57;15.05;;;7.95;;
44696;SDS011;57264;47.480;19.354;2022-10-22T05:11:25;13.57;;;7.28;;
44696;SDS011;57264;47.480;19.354;2022-10-22T05:13:57;14.02;;;7.43;;
44696;SDS011;57264;47.480;19.354;2022-10-22T05:16:24;17.83;;;8.30;;
44696;SDS011;57264;47.480;19.354;2022-10-22T05:18:50;11.02;;;6.95;;
44696;SDS011;57264;47.480;19.354;2022-10-22T05:21:17;14.10;;;8.60;;
44696;SDS011;57264;47.480;19.354;2022-10-22T05:23:44;13.52;;;8.43;;
44696;SDS011;57264;47.480;19.354;2022-10-22T05:26:11;16.08;;;9.15;;
44696;SDS011;57264;47.480;19.354;2022-10-22T05:28:38;14.77;;;8.60;;
44696;SDS011;57264;47.480;19.354;2022-10-22T05:31:04;12.57;;;8.27;;
44696;SDS011;57264;47.480;19.354;2022-10-22T05:33:31;13.10;;;8.70;;
44696;SDS011;57264;47.480;19.354;2022-10-22T05:35:57;14.60;;;8.98;;
44696;SDS011;57264;47.480;19.354;2022-10-22T05:38:23;11.87;;;8.47;;
44696;SDS011;57264;47.480;19.354;2022-10-22T05:40:59;14.63;;;8.53;;
44696;SDS011;57264;47.480;19.354;2022-10-22T05:43:25;16.88;;;8.15;;
44696;SDS011;57264;47.480;19.354;2022-10-22T05:45:51;16.10;;;9.02;;
44696;SDS011;57264;47.480;19.354;2022-10-22T05:48:17;15.23;;;8.27;;
44696;SDS011;57264;47.480;19.354;2022-10-22T05:50:42;15.20;;;7.97;;
44696;SDS011;57264;47.480;19.354;2022-10-22T05:53:10;20.95;;;9.23;;
44696;SDS011;57264;47.480;19.354;2022-10-22T05:55:35;16.77;;;9.40;;
44696;SDS011;57264;47.480;19.354;2022-10-22T05:58:03;21.75;;;9.57;;
44696;SDS011;57264;47.480;19.354;2022-10-22T06:00:29;14.60;;;7.72;;
44696;SDS011;57264;47.480;19.354;2022-10-22T06:02:54;17.23;;;8.13;;
44696;SDS011;57264;47.480;19.354;2022-10-22T06:05:20;13.83;;;8.77;;
44696;SDS011;57264;47.480;19.354;2022-10-22T06:07:45;16.37;;;7.37;;
44696;SDS011;57264;47.480;19.354;2022-10-22T06:10:14;11.70;;;7.70;;
44696;SDS011;57264;47.480;19.354;2022-10-22T06:12:42;16.85;;;7.38;;
44696;SDS011;57264;47.480;19.354;2022-10-22T06:15:09;15.43;;;7.70;;
44696;SDS011;57264;47.480;19.354;2022-10-22T06:17:39;13.45;;;7.65;;
44696;SDS011;57264;47.480;19.354;2022-10-22T06:20:05;18.47;;;7.60;;
44696;SDS011;57264;47.480;19.354;2022-10-22T06:22:31;17.67;;;7.60;;
44696;SDS011;57264;47.480;19.354;2022-10-22T06:24:57;18.10;;;7.57;;
44696;SDS011;57264;47.480;19.354;2022-10-22T06:27:22;26.03;;;7.80;;
44696;SDS011;57264;47.480;19.354;2022-10-22T06:29:47;11.53;;;7.03;;
44696;SDS011;57264;47.480;19.354;2022-10-22T06:32:13;16.53;;;7.73;;
44696;SDS011;57264;47.480;19.354;2022-10-22T06:34:38;12.33;;;8.00;;
44696;SDS011;57264;47.480;19.354;2022-10-22T06:37:04;14.60;;;7.50;;
44696;SDS011;57264;47.480;19.354;2022-10-22T06:39:29;14.43;;;7.87;;
44696;SDS011;57264;47.480;19.354;2022-10-22T06:41:55;18.30;;;8.00;;
44696;SDS011;57264;47.480;19.354;2022-10-22T06:44:21;15.10;;;7.67;;
44696;SDS011;57264;47.480;19.354;2022-10-22T06:46:49;15.13;;;7.93;;
44696;SDS011;57264;47.480;19.354;2022-10-22T06:49:18;14.98;;;7.90;;
44696;SDS011;57264;47.480;19.354;2022-10-22T06:51:44;15.60;;;7.40;;
44696;SDS011;57264;47.480;19.354;2022-10-22T06:54:13;18.35;;;8.10;;
44696;SDS011;57264;47.480;19.354;2022-10-22T06:56:39;12.67;;;8.50;;
44696;SDS011;57264;47.480;19.354;2022-10-22T06:59:04;22.20;;;8.33;;
44696;SDS011;57264;47.480;19.354;2022-10-22T07:01:31;19.37;;;8.83;;
44696;SDS011;57264;47.480;19.354;2022-10-22T07:03:58;12.80;;;7.43;;
44696;SDS011;57264;47.480;19.354;2022-10-22T07:06:24;15.50;;;7.30;;
44696;SDS011;57264;47.480;19.354;2022-10-22T07:08:52;11.35;;;7.32;;
44696;SDS011;57264;47.480;19.354;2022-10-22T07:11:22;14.75;;;6.82;;
44696;SDS011;57264;47.480;19.354;2022-10-22T07:13:50;18.17;;;7.07;;
44696;SDS011;57264;47.480;19.354;2022-10-22T07:16:18;15.95;;;7.18;;
44696;SDS011;57264;47.480;19.354;2022-10-22T07:18:43;13.43;;;7.07;;
44696;SDS011;57264;47.480;19.354;2022-10-22T07:21:10;13.13;;;7.20;;
44696;SDS011;57264;47.480;19.354;2022-10-22T07:23:36;14.02;;;6.82;;
44696;SDS011;57264;47.480;19.354;2022-10-22T07:26:02;13.33;;;7.60;;
44696;SDS011;57264;47.480;19.354;2022-10-22T07:28:31;14.40;;;8.02;;
44696;SDS011;57264;47.480;19.354;2022-10-22T07:30:59;16.85;;;8.57;;
44696;SDS011;57264;47.480;19.354;2022-10-22T07:33:25;15.55;;;6.75;;
44696;SDS011;57264;47.480;19.354;2022-10-22T07:35:55;25.40;;;7.72;;
44696;SDS011;57264;47.480;19.354;2022-10-22T07:38:23;18.50;;;6.88;;
44696;SDS011;57264;47.480;19.354;2022-10-22T07:40:49;13.63;;;7.90;;
44696;SDS011;57264;47.480;19.354;2022-10-22T07:43:15;12.33;;;6.87;;
44696;SDS011;57264;47.480;19.354;2022-10-22T07:45:40;12.50;;;7.13;;
44696;SDS011;57264;47.480;19.354;2022-10-22T07:48:06;14.67;;;7.10;;
44696;SDS011;57264;47.480;19.354;2022-10-22T07:50:31;15.90;;;7.47;;
44696;SDS011;57264;47.480;19.354;2022-10-22T07:52:57;11.23;;;7.67;;
44696;SDS011;57264;47.480;19.354;2022-10-22T07:55:22;14.20;;;6.77;;
44696;SDS011;57264;47.480;19.354;2022-10-22T07:57:48;12.57;;;7.00;;
44696;SDS011;57264;47.480;19.354;2022-10-22T08:00:13;11.83;;;7.27;;
44696;SDS011;57264;47.480;19.354;2022-10-22T08:02:39;10.50;;;6.63;;
44696;SDS011;57264;47.480;19.354;2022-10-22T08:05:05;14.83;;;7.60;;
44696;SDS011;57264;47.480;19.354;2022-10-22T08:07:31;13.30;;;7.30;;
44696;SDS011;57264;47.480;19.354;2022-10-22T08:09:56;17.30;;;7.10;;
44696;SDS011;57264;47.480;19.354;2022-10-22T08:12:22;12.57;;;7.00;;
44696;SDS011;57264;47.480;19.354;2022-10-22T08:14:47;14.20;;;6.90;;
44696;SDS011;57264;47.480;19.354;2022-10-22T08:17:14;13.23;;;7.33;;
44696;SDS011;57264;47.480;19.354;2022-10-22T08:19:39;11.90;;;7.07;;
44696;SDS011;57264;47.480;19.354;2022-10-22T08:22:05;12.00;;;7.37;;
44696;SDS011;57264;47.480;19.354;2022-10-22T08:24:30;16.10;;;8.33;;
44696;SDS011;57264;47.480;19.354;2022-10-22T08:26:56;15.27;;;7.13;;
44696;SDS011;57264;47.480;19.354;2022-10-22T08:29:22;12.57;;;6.80;;
44696;SDS011;57264;47.480;19.354;2022-10-22T08:31:48;13.90;;;7.27;;
44696;SDS011;57264;47.480;19.354;2022-10-22T08:34:14;16.50;;;7.57;;
44696;SDS011;57264;47.480;19.354;2022-10-22T08:36:41;14.33;;;7.50;;
44696;SDS011;57264;47.480;19.354;2022-10-22T08:39:06;15.93;;;8.07;;
44696;SDS011;57264;47.480;19.354;2022-10-22T08:41:33;11.27;;;6.57;;
44696;SDS011;57264;47.480;19.354;2022-10-22T08:49:40;15.13;;;7.90;;
44696;SDS011;57264;47.480;19.354;2022-10-22T08:52:12;11.60;;;7.43;;
44696;SDS011;57264;47.480;19.354;2022-10-22T08:54:48;12.45;;;7.22;;
44696;SDS011;57264;47.480;19.354;2022-10-22T08:57:21;13.50;;;7.37;;
44696;SDS011;57264;47.480;19.354;2022-10-22T09:07:57;11.55;;;8.07;;
44696;SDS011;57264;47.480;19.354;2022-10-22T09:10:31;12.83;;;8.40;;
44696;SDS011;57264;47.480;19.354;2022-10-22T09:13:00;46.37;;;11.60;;
44696;SDS011;57264;47.480;19.354;2022-10-22T09:15:26;34.77;;;9.30;;
44696;SDS011;57264;47.480;19.354;2022-10-22T09:20:46;14.55;;;8.23;;
44696;SDS011;57264;47.480;19.354;2022-10-22T09:25:46;15.47;;;8.50;;
44696;SDS011;57264;47.480;19.354;2022-10-22T09:28:15;14.83;;;8.63;;
44696;SDS011;57264;47.480;19.354;2022-10-22T09:30:41;13.50;;;8.40;;
44696;SDS011;57264;47.480;19.354;2022-10-22T09:33:19;18.60;;;8.43;;
44696;SDS011;57264;47.480;19.354;2022-10-22T09:35:51;19.23;;;9.70;;
44696;SDS011;57264;47.480;19.354;2022-10-22T09:38:21;13.13;;;9.37;;
44696;SDS011;57264;47.480;19.354;2022-10-22T09:40:53;16.47;;;10.07;;
44696;SDS011;57264;47.480;19.354;2022-10-22T09:43:20;23.60;;;9.83;;
44696;SDS011;57264;47.480;19.354;2022-10-22T09:45:46;21.27;;;9.80;;
44696;SDS011;57264;47.480;19.354;2022-10-22T09:55:39;17.47;;;8.80;;
44696;SDS011;57264;47.480;19.354;2022-10-22T09:58:07;18.60;;;8.47;;
44696;SDS011;57264;47.480;19.354;2022-10-22T10:00:38;17.02;;;8.50;;
44696;SDS011;57264;47.480;19.354;2022-10-22T10:03:05;18.40;;;8.50;;
44696;SDS011;57264;47.480;19.354;2022-10-22T10:05:32;20.73;;;10.10;;
44696;SDS011;57264;47.480;19.354;2022-10-22T10:08:12;16.53;;;9.33;;
44696;SDS011;57264;47.480;19.354;2022-10-22T10:11:26;18.90;;;10.17;;
44696;SDS011;57264;47.480;19.354;2022-10-22T10:19:07;20.43;;;9.70;;
44696;SDS011;57264;47.480;19.354;2022-10-22T10:30:02;17.67;;;9.53;;
44696;SDS011;57264;47.480;19.354;2022-10-22T10:40:50;12.40;;;8.80;;
44696;SDS011;57264;47.480;19.354;2022-10-22T10:49:19;17.63;;;9.37;;
44696;SDS011;57264;47.480;19.354;2022-10-22T11:10:42;16.57;;;8.40;;
44696;SDS011;57264;47.480;19.354;2022-10-22T11:15:56;19.10;;;9.57;;
44696;SDS011;57264;47.480;19.354;2022-10-22T11:18:35;14.60;;;8.63;;
44696;SDS011;57264;47.480;19.354;2022-10-22T11:21:12;16.30;;;8.67;;
44696;SDS011;57264;47.480;19.354;2022-10-22T11:26:28;20.50;;;9.13;;
44696;SDS011;57264;47.480;19.354;2022-10-22T11:29:02;25.33;;;9.80;;
44696;SDS011;57264;47.480;19.354;2022-10-22T11:31:31;15.07;;;8.23;;
44696;SDS011;57264;47.480;19.354;2022-10-22T11:36:46;12.47;;;8.40;;
44696;SDS011;57264;47.480;19.354;2022-10-22T11:39:28;11.63;;;8.13;;
44696;SDS011;57264;47.480;19.354;2022-10-22T11:42:19;12.30;;;8.27;;
44696;SDS011;57264;47.480;19.354;2022-10-22T11:45:30;31.20;;;9.73;;
44696;SDS011;57264;47.480;19.354;2022-10-22T12:19:03;13.65;;;8.10;;
44696;SDS011;57264;47.480;19.354;2022-10-22T12:21:37;14.80;;;8.20;;
44696;SDS011;57264;47.480;19.354;2022-10-22T12:24:05;15.17;;;9.03;;
44696;SDS011;57264;47.480;19.354;2022-10-22T12:26:34;16.07;;;8.03;;
44696;SDS011;57264;47.480;19.354;2022-10-22T12:29:00;19.30;;;8.13;;
44696;SDS011;57264;47.480;19.354;2022-10-22T12:31:27;13.87;;;7.93;;
44696;SDS011;57264;47.480;19.354;2022-10-22T12:34:00;15.80;;;8.70;;
44696;SDS011;57264;47.480;19.354;2022-10-22T12:36:27;12.63;;;8.00;;
44696;SDS011;57264;47.480;19.354;2022-10-22T12:38:53;15.37;;;7.97;;
44696;SDS011;57264;47.480;19.354;2022-10-22T12:41:29;10.63;;;7.67;;
44696;SDS011;57264;47.480;19.354;2022-10-22T12:44:02;11.47;;;7.93;;
44696;SDS011;57264;47.480;19.354;2022-10-22T12:46:30;11.87;;;8.27;;
44696;SDS011;57264;47.480;19.354;2022-10-22T12:48:59;14.57;;;8.43;;
44696;SDS011;57264;47.480;19.354;2022-10-22T12:51:27;14.23;;;8.20;;
44696;SDS011;57264;47.480;19.354;2022-10-22T12:53:58;12.87;;;8.57;;
44696;SDS011;57264;47.480;19.354;2022-10-22T12:56:30;11.77;;;8.17;;
44696;SDS011;57264;47.480;19.354;2022-10-22T12:59:20;17.10;;;8.93;;
44696;SDS011;57264;47.480;19.354;2022-10-22T13:01:47;14.20;;;8.37;;
44696;SDS011;57264;47.480;19.354;2022-10-22T13:12:23;12.63;;;9.10;;
44696;SDS011;57264;47.480;19.354;2022-10-22T13:14:50;14.53;;;9.10;;
44696;SDS011;57264;47.480;19.354;2022-10-22T13:17:19;14.00;;;8.30;;
44696;SDS011;57264;47.480;19.354;2022-10-22T13:20:03;16.80;;;9.80;;
44696;SDS011;57264;47.480;19.354;2022-10-22T13:22:39;18.73;;;10.20;;
44696;SDS011;57264;47.480;19.354;2022-10-22T13:32:58;16.63;;;11.03;;
44696;SDS011;57264;47.480;19.354;2022-10-22T13:35:32;17.90;;;10.83;;
44696;SDS011;57264;47.480;19.354;2022-10-22T13:38:00;14.55;;;10.00;;
44696;SDS011;57264;47.480;19.354;2022-10-22T13:40:26;15.37;;;10.13;;
44696;SDS011;57264;47.480;19.354;2022-10-22T13:42:52;21.07;;;10.93;;
44696;SDS011;57264;47.480;19.354;2022-10-22T13:45:18;21.90;;;10.77;;
44696;SDS011;57264;47.480;19.354;2022-10-22T13:47:45;16.60;;;10.77;;
44696;SDS011;57264;47.480;19.354;2022-10-22T13:50:16;20.70;;;11.50;;
44696;SDS011;57264;47.480;19.354;2022-10-22T13:52:44;18.90;;;12.47;;
44696;SDS011;57264;47.480;19.354;2022-10-22T13:55:22;23.63;;;12.52;;
44696;SDS011;57264;47.480;19.354;2022-10-22T14:00:51;23.33;;;12.80;;
44696;SDS011;57264;47.480;19.354;2022-10-22T14:03:28;18.50;;;11.27;;
44696;SDS011;57264;47.480;19.354;2022-10-22T14:05:57;19.30;;;11.23;;
44696;SDS011;57264;47.480;19.354;2022-10-22T14:08:23;23.07;;;12.47;;
44696;SDS011;57264;47.480;19.354;2022-10-22T14:10:50;23.63;;;12.23;;
44696;SDS011;57264;47.480;19.354;2022-10-22T14:13:16;29.37;;;13.33;;
44696;SDS011;57264;47.480;19.354;2022-10-22T14:15:42;24.30;;;13.07;;
44696;SDS011;57264;47.480;19.354;2022-10-22T14:18:11;29.43;;;14.13;;
44696;SDS011;57264;47.480;19.354;2022-10-22T14:20:48;29.50;;;13.37;;
44696;SDS011;57264;47.480;19.354;2022-10-22T14:23:18;26.70;;;13.80;;
44696;SDS011;57264;47.480;19.354;2022-10-22T14:25:44;26.00;;;12.67;;
44696;SDS011;57264;47.480;19.354;2022-10-22T14:28:11;27.93;;;12.80;;
44696;SDS011;57264;47.480;19.354;2022-10-22T14:30:37;26.47;;;13.20;;
44696;SDS011;57264;47.480;19.354;2022-10-22T14:33:13;25.77;;;14.50;;
44696;SDS011;57264;47.480;19.354;2022-10-22T14:35:39;30.57;;;13.83;;
44696;SDS011;57264;47.480;19.354;2022-10-22T14:38:04;25.23;;;14.00;;
44696;SDS011;57264;47.480;19.354;2022-10-22T14:40:30;24.27;;;13.80;;
44696;SDS011;57264;47.480;19.354;2022-10-22T14:42:55;20.37;;;13.40;;
44696;SDS011;57264;47.480;19.354;2022-10-22T14:45:22;23.37;;;14.50;;
44696;SDS011;57264;47.480;19.354;2022-10-22T14:47:50;19.87;;;12.43;;
44696;SDS011;57264;47.480;19.354;2022-10-22T14:50:17;21.47;;;13.17;;
44696;SDS011;57264;47.480;19.354;2022-10-22T14:52:42;26.90;;;12.80;;
44696;SDS011;57264;47.480;19.354;2022-10-22T14:55:09;27.80;;;12.73;;
44696;SDS011;57264;47.480;19.354;2022-10-22T14:57:35;23.80;;;12.67;;
44696;SDS011;57264;47.480;19.354;2022-10-22T15:00:05;22.27;;;13.07;;
44696;SDS011;57264;47.480;19.354;2022-10-22T15:02:33;27.40;;;11.87;;
44696;SDS011;57264;47.480;19.354;2022-10-22T15:04:58;23.73;;;12.93;;
44696;SDS011;57264;47.480;19.354;2022-10-22T15:07:24;18.07;;;11.97;;
44696;SDS011;57264;47.480;19.354;2022-10-22T15:09:51;24.73;;;13.07;;
44696;SDS011;57264;47.480;19.354;2022-10-22T15:12:17;24.07;;;14.37;;
44696;SDS011;57264;47.480;19.354;2022-10-22T15:14:44;24.73;;;13.00;;
44696;SDS011;57264;47.480;19.354;2022-10-22T15:17:10;24.73;;;14.40;;
44696;SDS011;57264;47.480;19.354;2022-10-22T15:19:36;21.20;;;13.70;;
44696;SDS011;57264;47.480;19.354;2022-10-22T15:22:01;29.03;;;14.30;;
44696;SDS011;57264;47.480;19.354;2022-10-22T15:24:28;23.43;;;13.73;;
44696;SDS011;57264;47.480;19.354;2022-10-22T15:26:53;23.67;;;14.30;;
44696;SDS011;57264;47.480;19.354;2022-10-22T15:29:19;27.30;;;15.37;;
44696;SDS011;57264;47.480;19.354;2022-10-22T15:34:18;28.98;;;14.10;;
44696;SDS011;57264;47.480;19.354;2022-10-22T15:36:45;25.05;;;14.60;;
44696;SDS011;57264;47.480;19.354;2022-10-22T15:39:11;25.30;;;15.13;;
44696;SDS011;57264;47.480;19.354;2022-10-22T15:41:37;26.87;;;14.93;;
44696;SDS011;57264;47.480;19.354;2022-10-22T15:44:02;25.50;;;14.60;;
44696;SDS011;57264;47.480;19.354;2022-10-22T15:46:30;26.65;;;15.82;;
44696;SDS011;57264;47.480;19.354;2022-10-22T15:48:56;22.42;;;16.08;;
44696;SDS011;57264;47.480;19.354;2022-10-22T15:51:21;26.93;;;15.30;;
44696;SDS011;57264;47.480;19.354;2022-10-22T15:53:54;22.27;;;15.30;;
44696;SDS011;57264;47.480;19.354;2022-10-22T15:56:21;25.38;;;15.25;;
44696;SDS011;57264;47.480;19.354;2022-10-22T15:58:53;28.80;;;16.02;;
44696;SDS011;57264;47.480;19.354;2022-10-22T16:01:29;28.00;;;15.82;;
44696;SDS011;57264;47.480;19.354;2022-10-22T16:03:56;31.52;;;17.23;;
44696;SDS011;57264;47.480;19.354;2022-10-22T16:06:37;33.75;;;17.27;;
44696;SDS011;57264;47.480;19.354;2022-10-22T16:09:06;29.92;;;17.33;;
44696;SDS011;57264;47.480;19.354;2022-10-22T16:11:33;29.42;;;18.45;;
44696;SDS011;57264;47.480;19.354;2022-10-22T16:13:59;26.67;;;17.90;;
44696;SDS011;57264;47.480;19.354;2022-10-22T16:16:26;31.30;;;20.33;;
44696;SDS011;57264;47.480;19.354;2022-10-22T16:18:57;34.00;;;19.63;;
44696;SDS011;57264;47.480;19.354;2022-10-22T16:21:23;31.47;;;17.27;;
44696;SDS011;57264;47.480;19.354;2022-10-22T16:23:49;43.05;;;19.17;;
44696;SDS011;57264;47.480;19.354;2022-10-22T16:26:16;33.77;;;22.10;;
44696;SDS011;57264;47.480;19.354;2022-10-22T16:28:43;38.13;;;20.98;;
44696;SDS011;57264;47.480;19.354;2022-10-22T16:31:10;35.22;;;19.65;;
44696;SDS011;57264;47.480;19.354;2022-10-22T16:33:38;38.05;;;23.20;;
44696;SDS011;57264;47.480;19.354;2022-10-22T16:36:11;36.20;;;24.45;;
44696;SDS011;57264;47.480;19.354;2022-10-22T16:38:38;41.08;;;24.13;;
44696;SDS011;57264;47.480;19.354;2022-10-22T16:41:07;39.43;;;24.30;;
44696;SDS011;57264;47.480;19.354;2022-10-22T16:43:44;40.63;;;26.02;;
44696;SDS011;57264;47.480;19.354;2022-10-22T16:46:12;53.95;;;32.58;;
44696;SDS011;57264;47.480;19.354;2022-10-22T16:48:42;47.10;;;27.08;;
44696;SDS011;57264;47.480;19.354;2022-10-22T16:51:09;43.67;;;26.33;;
44696;SDS011;57264;47.480;19.354;2022-10-22T16:53:37;42.72;;;25.35;;
44696;SDS011;57264;47.480;19.354;2022-10-22T16:56:03;37.37;;;22.80;;
44696;SDS011;57264;47.480;19.354;2022-10-22T16:58:28;36.33;;;22.17;;
44696;SDS011;57264;47.480;19.354;2022-10-22T17:00:54;34.97;;;23.60;;
44696;SDS011;57264;47.480;19.354;2022-10-22T17:03:20;36.60;;;24.10;;
44696;SDS011;57264;47.480;19.354;2022-10-22T17:05:45;40.27;;;27.17;;
44696;SDS011;57264;47.480;19.354;2022-10-22T17:08:11;40.63;;;27.10;;
44696;SDS011;57264;47.480;19.354;2022-10-22T17:10:36;44.43;;;27.07;;
44696;SDS011;57264;47.480;19.354;2022-10-22T17:13:03;45.58;;;28.75;;
44696;SDS011;57264;47.480;19.354;2022-10-22T17:15:29;42.75;;;27.60;;
44696;SDS011;57264;47.480;19.354;2022-10-22T17:17:57;46.65;;;27.50;;
44696;SDS011;57264;47.480;19.354;2022-10-22T17:20:24;39.97;;;26.20;;